Kampville Beach, Missouri
Current Conditions -  °F | °C
As of 4:54 AM on Saturday 22 Nov 2014 (Local Time) from KSET Reporting Station
Haze Haze  
Wind Chill:   Ceiling: 4700
Heat Index:   Visibility: 6mi
Dew Point:   Wind: 7mph
Humidity: 89%   Direction: 110°ESE
Pressure: 30.12"   Gusts: NA
Location:  38.8615°N, 90.4548°W
Report Text: KSET 221054Z AUTO 11006KT 6SM BR BKN047 OVC060 04/02 A3012 RMK AO2 SLP203 T00390022
Loading
Personal Weather Stations






























Interactive Weather Map New forecast layout! Learn more

10-Day Weather Forecast

Advertisements
Track Severe Weather on mobile